Time;durP1;ratioP1;P1;durP2;ratioP2;P2;SDS_P1;SDS_P2;PMS_P1;PMS_P2;Temp;Humidity;BMP_temperature;BMP_pressure;BME280_temperature;BME280_humidity;BME280_pressure;Samples;Min_cycle;Max_cycle;Signal;HPM_P1;HPM_P2
2022/07/11 00:00:56;;;;;;;3.28;1.00;;;;;;;15.22;58.64;100389.09;5093789;28;20040;-73
2022/07/11 00:03:24;;;;;;;2.13;0.88;;;;;;;15.13;58.74;100392.47;5093648;28;20040;-72
2022/07/11 00:05:52;;;;;;;2.28;1.02;;;;;;;15.09;58.92;100391.03;5094762;28;20465;-71
2022/07/11 00:08:20;;;;;;;1.98;1.00;;;;;;;15.03;59.26;100394.16;5093848;28;20050;-71
2022/07/11 00:10:48;;;;;;;1.98;0.90;;;;;;;14.97;59.78;100394.66;5093346;28;20542;-72
2022/07/11 00:13:17;;;;;;;2.03;0.90;;;;;;;14.87;60.12;100392.66;5093099;28;20552;-73
2022/07/11 00:15:46;;;;;;;2.45;0.90;;;;;;;14.88;60.25;100398.88;5093489;28;20040;-73
2022/07/11 00:18:14;;;;;;;2.67;1.00;;;;;;;14.93;59.89;100393.16;5093535;28;20522;-73
2022/07/11 00:20:42;;;;;;;1.83;1.00;;;;;;;14.77;60.55;100391.66;5093585;28;20044;-72
2022/07/11 00:23:11;;;;;;;3.50;1.25;;;;;;;14.76;60.88;100397.97;5093164;28;20408;-71
2022/07/11 00:25:40;;;;;;;1.35;0.90;;;;;;;14.75;60.98;100392.72;5075450;28;20048;-72
2022/07/11 00:28:08;;;;;;;1.00;0.70;;;;;;;14.66;61.28;100388.88;5093149;28;20469;-72
2022/07/11 00:30:36;;;;;;;2.20;0.85;;;;;;;14.67;61.58;100384.38;5093413;28;20040;-72
2022/07/11 00:33:05;;;;;;;4.38;1.25;;;;;;;14.69;61.58;100382.44;5092519;28;20036;-72
2022/07/11 00:35:34;;;;;;;3.33;1.10;;;;;;;14.75;61.67;100381.97;5093624;28;20090;-72
2022/07/11 00:38:02;;;;;;;2.08;0.88;;;;;;;14.71;61.43;100378.69;5092942;28;20044;-71
2022/07/11 00:40:30;;;;;;;1.98;0.90;;;;;;;14.77;61.45;100380.06;5093108;28;20051;-71
2022/07/11 00:42:58;;;;;;;1.73;0.90;;;;;;;14.68;61.78;100376.22;5093244;28;20052;-71
2022/07/11 00:45:26;;;;;;;2.42;1.45;;;;;;;14.75;61.79;100377.47;5093492;28;20044;-71
2022/07/11 00:47:55;;;;;;;3.47;1.00;;;;;;;14.70;61.70;100376.97;5093016;28;20094;-71
2022/07/11 00:50:25;;;;;;;1.92;0.93;;;;;;;14.74;62.01;100375.75;5093010;28;20560;-71
2022/07/11 00:52:56;;;;;;;2.83;0.90;;;;;;;14.71;62.11;100376.00;5093003;28;20044;-71
2022/07/11 00:55:24;;;;;;;3.22;0.98;;;;;;;14.74;61.91;100375.75;5092895;28;20457;-71
2022/07/11 00:57:53;;;;;;;2.25;1.00;;;;;;;14.66;62.40;100380.84;5093191;28;20491;-71
2022/07/11 01:00:22;;;;;;;2.97;1.30;;;;;;;14.68;62.35;100388.78;5093032;28;20052;-71
2022/07/11 01:02:50;;;;;;;2.40;0.98;;;;;;;14.76;61.88;100381.84;5093192;28;20044;-71
2022/07/11 01:05:18;;;;;;;2.45;1.05;;;;;;;14.76;61.77;100384.53;5093000;28;20048;-71
2022/07/11 01:07:47;;;;;;;3.05;0.95;;;;;;;14.67;62.29;100379.00;5093001;28;20040;-72
2022/07/11 01:10:16;;;;;;;2.17;0.85;;;;;;;14.60;62.68;100378.63;5092724;28;20381;-71
2022/07/11 01:12:44;;;;;;;3.35;1.35;;;;;;;14.62;62.88;100376.69;5092819;28;20037;-72
2022/07/11 01:15:15;;;;;;;3.90;1.30;;;;;;;14.58;63.25;100375.22;5092752;28;20040;-71
2022/07/11 01:17:43;;;;;;;2.05;1.00;;;;;;;14.53;63.48;100370.16;5092914;28;20127;-71
2022/07/11 01:20:12;;;;;;;4.40;1.48;;;;;;;14.40;64.25;100369.34;5092553;28;20044;-72
2022/07/11 01:22:49;;;;;;;3.80;1.00;;;;;;;14.42;64.72;100371.91;5092875;28;20040;-72
2022/07/11 01:25:30;;;;;;;2.10;0.85;;;;;;;14.40;65.03;100376.53;5092846;28;20392;-72
2022/07/11 01:27:59;;;;;;;4.72;1.23;;;;;;;14.30;65.54;100376.38;5092656;28;20062;-75
2022/07/11 01:30:28;;;;;;;2.50;1.15;;;;;;;14.26;66.08;100375.72;5092630;28;20079;-73
2022/07/11 01:32:56;;;;;;;4.22;1.27;;;;;;;14.23;66.77;100378.63;5092581;28;20044;-73
2022/07/11 01:35:25;;;;;;;2.75;1.15;;;;;;;14.25;67.03;100368.63;5092723;28;20122;-73
2022/07/11 01:37:53;;;;;;;2.58;0.90;;;;;;;14.18;67.38;100372.72;5092761;28;20063;-73
2022/07/11 01:40:30;;;;;;;3.38;1.17;;;;;;;14.32;66.69;100374.41;5092081;28;20052;-73
2022/07/11 01:42:58;;;;;;;3.60;1.15;;;;;;;14.20;67.51;100375.31;5092586;28;20052;-74
2022/07/11 01:45:26;;;;;;;4.07;1.30;;;;;;;14.15;68.14;100377.47;5095955;28;20040;-74
2022/07/11 01:47:55;;;;;;;3.45;1.15;;;;;;;14.14;68.24;100376.63;5096293;28;20044;-74
2022/07/11 01:50:23;;;;;;;3.70;1.33;;;;;;;14.10;68.82;100375.16;5096238;28;20052;-74
2022/07/11 01:52:51;;;;;;;3.42;1.20;;;;;;;14.14;68.69;100371.25;5096351;28;20042;-73
2022/07/11 01:55:20;;;;;;;2.42;1.30;;;;;;;14.04;69.51;100378.25;5095941;28;20051;-74
2022/07/11 01:57:49;;;;;;;3.08;1.13;;;;;;;14.10;68.97;100383.19;5095951;28;20044;-74
2022/07/11 02:00:18;;;;;;;4.40;1.17;;;;;;;14.04;69.54;100380.94;5095712;28;20109;-73
2022/07/11 02:02:46;;;;;;;3.10;1.10;;;;;;;14.08;69.82;100390.47;5096200;28;20044;-70
2022/07/11 02:05:14;;;;;;;3.78;1.10;;;;;;;14.01;69.81;100381.19;5095969;28;20089;-70
2022/07/11 02:10:29;;;;;;;2.97;1.20;;;;;;;14.00;70.40;100385.69;5095622;28;20506;-71
2022/07/11 02:12:59;;;;;;;3.38;1.33;;;;;;;14.02;70.14;100388.25;5095482;28;20056;-71
2022/07/11 02:15:28;;;;;;;2.85;1.10;;;;;;;14.03;70.29;100381.91;5095777;28;20040;-70
2022/07/11 02:17:57;;;;;;;2.88;1.17;;;;;;;13.99;70.79;100385.75;5077757;28;20485;-71
2022/07/11 02:20:25;;;;;;;2.08;1.20;;;;;;;13.98;71.01;100386.72;5095342;28;20131;-70
2022/07/11 02:22:56;;;;;;;3.17;1.30;;;;;;;13.87;71.13;100382.16;5095458;28;20040;-70
2022/07/11 02:25:24;;;;;;;4.00;1.30;;;;;;;13.88;71.68;100385.69;5095525;28;20046;-70
2022/07/11 02:27:52;;;;;;;4.40;1.35;;;;;;;13.94;71.31;100395.97;5095469;28;20102;-72
2022/07/11 02:30:21;;;;;;;3.60;1.25;;;;;;;13.86;71.76;100403.72;5095467;28;20409;-72
2022/07/11 02:32:51;;;;;;;2.53;1.48;;;;;;;13.87;71.76;100410.78;5095408;28;20055;-72
2022/07/11 02:35:19;;;;;;;2.15;1.20;;;;;;;13.81;72.51;100411.25;5094995;28;20051;-72
2022/07/11 02:37:48;;;;;;;2.20;1.15;;;;;;;13.79;72.39;100408.66;5095504;28;20044;-72
2022/07/11 02:40:16;;;;;;;6.05;1.25;;;;;;;13.81;72.75;100413.94;5094954;28;20127;-72
2022/07/11 02:42:45;;;;;;;3.83;1.33;;;;;;;13.73;73.40;100415.31;5095539;28;20043;-72
2022/07/11 02:45:14;;;;;;;3.83;1.25;;;;;;;13.71;73.60;100425.28;5095040;28;20059;-72
2022/07/11 02:47:45;;;;;;;3.75;1.63;;;;;;;13.66;74.50;100423.88;5095177;28;20450;-72
2022/07/11 02:50:14;;;;;;;1.92;1.20;;;;;;;13.64;74.69;100423.16;5095075;28;20370;-72
2022/07/11 02:52:43;;;;;;;4.22;1.20;;;;;;;13.65;74.80;100423.03;5094896;28;20075;-71
2022/07/11 02:55:13;;;;;;;3.53;1.30;;;;;;;13.65;74.94;100422.19;5094088;28;20472;-72
2022/07/11 02:57:41;;;;;;;4.65;1.50;;;;;;;13.65;75.00;100417.69;5094981;28;20089;-71
2022/07/11 03:00:12;;;;;;;5.85;1.52;;;;;;;13.57;76.31;100412.00;5094504;28;20096;-71
2022/07/11 03:02:40;;;;;;;3.70;1.23;;;;;;;13.57;76.32;100408.44;5094813;28;20040;-73
2022/07/11 03:05:10;;;;;;;4.95;1.27;;;;;;;13.55;76.41;100407.72;5094667;28;20043;-78
2022/07/11 03:07:38;;;;;;;5.15;1.60;;;;;;;13.46;77.22;100401.16;5094648;28;20040;-73
2022/07/11 03:10:07;;;;;;;2.95;1.30;;;;;;;13.58;76.49;100394.09;5095023;28;20050;-73
2022/07/11 03:12:35;;;;;;;4.35;1.63;;;;;;;13.55;76.71;100395.16;5094378;28;20139;-73
2022/07/11 03:15:04;;;;;;;3.38;1.20;;;;;;;13.72;75.27;100402.88;5094485;28;20040;-75
2022/07/11 03:17:34;;;;;;;1.30;1.00;;;;;;;13.82;74.89;100402.22;5094344;28;20044;-75
2022/07/11 03:20:02;;;;;;;5.63;1.52;;;;;;;13.82;74.91;100403.09;5094585;28;20050;-74
2022/07/11 03:22:32;;;;;;;4.10;1.20;;;;;;;13.85;74.86;100397.50;5094244;28;20044;-75
2022/07/11 03:25:00;;;;;;;3.92;1.30;;;;;;;13.87;74.91;100397.38;5094388;28;20047;-75
2022/07/11 03:27:29;;;;;;;6.05;1.25;;;;;;;13.96;74.40;100391.34;5093847;28;20052;-75
2022/07/11 03:29:57;;;;;;;6.47;1.50;;;;;;;13.96;74.34;100394.91;5094207;28;20477;-75
2022/07/11 03:32:25;;;;;;;3.70;1.55;;;;;;;14.03;73.61;100388.13;5094154;28;20044;-72
2022/07/11 03:37:44;;;;;;;3.30;1.25;;;;;;;14.38;71.64;100397.25;5094200;28;20446;-71
2022/07/11 03:40:12;;;;;;;3.55;1.40;;;;;;;14.61;70.59;100393.75;5093711;28;20484;-71
2022/07/11 03:42:40;;;;;;;4.22;1.60;;;;;;;14.72;69.83;100393.81;5093989;28;20058;-71
2022/07/11 03:45:08;;;;;;;2.60;1.20;;;;;;;15.12;67.91;100405.06;5094107;28;20048;-71
2022/07/11 03:47:37;;;;;;;4.75;1.40;;;;;;;16.00;63.60;100402.63;5093970;28;20145;-71
2022/07/11 03:50:06;;;;;;;2.30;1.30;;;;;;;16.55;60.45;100405.38;5093853;28;20071;-71
2022/07/11 03:52:36;;;;;;;4.03;1.60;;;;;;;17.22;57.61;100401.56;5093755;28;20044;-71
2022/07/11 03:55:06;;;;;;;4.65;1.50;;;;;;;17.86;55.60;100402.28;5094086;28;20036;-71
2022/07/11 03:57:36;;;;;;;2.85;1.33;;;;;;;18.34;53.43;100400.72;5093749;28;20176;-71
2022/07/11 04:00:07;;;;;;;7.32;1.40;;;;;;;18.28;53.37;100404.81;5093895;28;20135;-71
2022/07/11 04:02:36;;;;;;;6.15;1.83;;;;;;;18.94;51.10;100406.94;5093685;28;20043;-71
2022/07/11 04:05:06;;;;;;;3.03;1.20;;;;;;;19.20;50.44;100408.06;5093527;28;20147;-71
2022/07/11 04:07:34;;;;;;;3.75;1.30;;;;;;;19.83;48.64;100399.41;5092573;28;20044;-71
2022/07/11 04:10:02;;;;;;;2.80;1.40;;;;;;;20.15;47.81;100405.25;5093491;28;20051;-71
2022/07/11 04:12:32;;;;;;;5.00;1.40;;;;;;;19.28;48.95;100405.47;5093031;28;20074;-70
2022/07/11 04:15:00;;;;;;;6.00;1.58;;;;;;;19.77;48.04;100405.41;5073131;28;20366;-70
2022/07/11 04:17:28;;;;;;;4.10;1.35;;;;;;;20.37;46.52;100412.13;5072973;28;20045;-71
2022/07/11 04:19:56;;;;;;;4.43;1.60;;;;;;;20.51;46.36;100417.06;5073206;28;20053;-71
2022/07/11 04:22:25;;;;;;;3.78;1.52;;;;;;;20.49;45.85;100419.06;5073000;28;20056;-71
2022/07/11 04:24:53;;;;;;;4.65;1.63;;;;;;;20.88;46.06;100418.81;5073283;28;20043;-70
2022/07/11 04:27:21;;;;;;;4.28;1.45;;;;;;;21.17;44.41;100423.13;5073199;28;20088;-70
2022/07/11 04:29:57;;;;;;;3.88;1.30;;;;;;;21.65;43.32;100428.13;5073030;28;20044;-71
2022/07/11 04:32:25;;;;;;;3.90;1.30;;;;;;;21.43;43.95;100418.66;5072912;28;20044;-72
2022/07/11 04:34:53;;;;;;;5.82;1.67;;;;;;;21.90;42.71;100418.25;5072918;28;20041;-72
2022/07/11 04:37:21;;;;;;;3.85;1.48;;;;;;;22.49;41.32;100413.81;5073052;28;20040;-72
2022/07/11 04:39:50;;;;;;;3.17;1.40;;;;;;;22.04;42.00;100417.66;5073038;28;20468;-72
2022/07/11 04:42:18;;;;;;;3.22;1.23;;;;;;;21.77;42.33;100417.84;5072563;28;20044;-71
2022/07/11 04:44:46;;;;;;;6.18;1.52;;;;;;;22.52;41.27;100416.19;5073218;28;20041;-71
2022/07/11 04:47:16;;;;;;;4.10;1.40;;;;;;;21.96;42.28;100423.03;5072999;28;20045;-79
2022/07/11 04:49:46;;;;;;;4.53;1.30;;;;;;;22.19;42.15;100415.19;5073048;28;20098;-72
2022/07/11 04:52:15;;;;;;;5.32;1.50;;;;;;;22.05;42.39;100424.78;5072647;28;20054;-80
2022/07/11 04:54:43;;;;;;;3.85;1.50;;;;;;;22.56;40.79;100422.97;5072899;28;20044;-71
2022/07/11 04:57:11;;;;;;;4.05;1.40;;;;;;;23.01;40.34;100424.47;5072764;28;20051;-71
2022/07/11 04:59:39;;;;;;;4.00;1.40;;;;;;;23.14;39.63;100432.97;5072453;28;20044;-70
2022/07/11 05:02:08;;;;;;;3.17;1.05;;;;;;;23.24;39.34;100428.22;5072905;28;20049;-69
2022/07/11 05:04:38;;;;;;;2.92;1.30;;;;;;;22.77;39.63;100431.53;5072755;28;20041;-70
2022/07/11 05:07:06;;;;;;;3.13;1.50;;;;;;;23.60;39.02;100428.75;5054903;28;20052;-68
2022/07/11 05:09:35;;;;;;;5.28;1.80;;;;;;;23.87;38.06;100429.38;5072519;28;20043;-70
2022/07/11 05:12:03;;;;;;;5.57;1.65;;;;;;;24.68;36.59;100428.22;5072688;28;20068;-69
2022/07/11 05:14:31;;;;;;;5.68;1.35;;;;;;;24.54;37.32;100430.69;5089236;28;20091;-70
2022/07/11 05:16:59;;;;;;;4.30;1.38;;;;;;;24.85;36.24;100427.09;5092685;28;20094;-68
2022/07/11 05:19:28;;;;;;;5.30;1.42;;;;;;;23.43;39.05;100430.59;5095016;28;20396;-70
2022/07/11 05:21:57;;;;;;;4.75;1.33;;;;;;;22.75;39.25;100430.84;5096657;28;20044;-72
2022/07/11 05:24:25;;;;;;;4.93;1.60;;;;;;;21.43;42.26;100440.34;5096639;28;20101;-71
2022/07/11 05:26:53;;;;;;;5.18;1.52;;;;;;;20.64;44.82;100443.78;5078891;28;20130;-70
2022/07/11 05:29:22;;;;;;;4.82;1.35;;;;;;;21.82;42.09;100440.81;5096348;28;20055;-74
2022/07/11 05:31:52;;;;;;;5.05;1.40;;;;;;;22.28;41.34;100436.81;5096635;28;20400;-71
2022/07/11 05:34:21;;;;;;;5.13;1.65;;;;;;;22.51;40.66;100444.38;5096203;28;20208;-72
2022/07/11 05:36:49;;;;;;;3.95;1.42;;;;;;;23.66;38.29;100440.84;5077664;28;20421;-73
2022/07/11 05:39:18;;;;;;;4.15;1.40;;;;;;;24.33;37.00;100445.97;5096703;28;20123;-70
2022/07/11 05:41:50;;;;;;;4.15;1.40;;;;;;;23.68;37.84;100446.97;5096422;28;20405;-70
2022/07/11 05:44:18;;;;;;;3.03;1.30;;;;;;;24.34;36.75;100444.94;5095910;28;20036;-73
2022/07/11 05:46:47;;;;;;;3.50;1.30;;;;;;;25.18;34.98;100440.53;5095835;28;20143;-69
2022/07/11 05:49:15;;;;;;;3.95;1.42;;;;;;;24.50;36.29;100448.44;5094219;28;20098;-68
2022/07/11 05:51:43;;;;;;;5.15;1.42;;;;;;;24.60;35.89;100447.34;5076070;28;20481;-74
2022/07/11 05:54:11;;;;;;;5.55;1.30;;;;;;;24.67;35.29;100446.47;5075877;28;20435;-74
2022/07/11 05:56:41;;;;;;;6.13;1.40;;;;;;;24.48;35.70;100446.91;5091506;28;20048;-71
2022/07/11 05:59:09;;;;;;;5.15;1.20;;;;;;;24.78;35.64;100442.47;5095575;28;20503;-76
2022/07/11 06:01:37;;;;;;;4.20;1.40;;;;;;;23.77;37.75;100445.91;5095162;28;20060;-73
2022/07/11 06:04:06;;;;;;;6.00;1.60;;;;;;;22.85;38.67;100456.06;5095249;28;20435;-73
2022/07/11 06:06:34;;;;;;;4.50;1.35;;;;;;;22.91;38.48;100451.84;5094996;28;20036;-71
2022/07/11 06:09:02;;;;;;;4.25;1.30;;;;;;;21.69;40.29;100462.06;5095450;28;20046;-73
2022/07/11 06:11:31;;;;;;;7.90;1.63;;;;;;;21.84;41.57;100454.22;5094862;28;20056;-70
2022/07/11 06:14:00;;;;;;;4.05;1.50;;;;;;;22.39;40.73;100453.84;5095377;28;20106;-73
2022/07/11 06:16:29;;;;;;;5.00;1.40;;;;;;;23.19;39.01;100457.81;5094976;28;20050;-69
2022/07/11 06:18:58;;;;;;;5.35;1.70;;;;;;;25.26;35.63;100454.13;5093102;28;20094;-73
2022/07/11 06:21:27;;;;;;;7.47;1.40;;;;;;;26.05;34.34;100449.13;5077371;28;20055;-72
2022/07/11 06:23:55;;;;;;;5.85;1.50;;;;;;;24.86;35.27;100453.34;5095569;28;20044;-69
2022/07/11 06:26:23;;;;;;;4.13;1.40;;;;;;;24.95;35.28;100457.72;5095279;28;20080;-72
2022/07/11 06:28:51;;;;;;;4.80;1.40;;;;;;;23.79;37.61;100460.22;5095758;28;20511;-72
2022/07/11 06:31:25;;;;;;;5.93;1.55;;;;;;;23.91;37.09;100453.38;5094569;28;20374;-73
2022/07/11 06:33:56;;;;;;;6.53;1.63;;;;;;;24.15;36.31;100455.19;5095636;28;20036;-73
2022/07/11 06:36:24;;;;;;;3.33;1.30;;;;;;;25.34;34.69;100459.53;5095140;28;20036;-73
2022/07/11 06:38:53;;;;;;;8.10;1.50;;;;;;;25.12;34.61;100450.31;5077168;28;20058;-74
2022/07/11 06:41:22;;;;;;;4.57;1.50;;;;;;;25.51;34.56;100457.53;5095790;28;20040;-71
2022/07/11 06:43:50;;;;;;;3.70;1.40;;;;;;;25.97;33.41;100452.84;5095298;28;20101;-70
2022/07/11 06:46:19;;;;;;;3.83;1.40;;;;;;;26.54;32.72;100449.47;5077511;28;20063;-69
2022/07/11 06:48:49;;;;;;;3.97;1.20;;;;;;;26.14;33.51;100451.59;5076870;28;20044;-71
2022/07/11 06:51:17;;;;;;;5.47;1.45;;;;;;;26.96;32.74;100451.41;5094942;28;20051;-71
2022/07/11 06:53:45;;;;;;;6.38;1.80;;;;;;;26.25;32.97;100456.63;5094661;28;20040;-69
2022/07/11 06:56:14;;;;;;;4.47;1.10;;;;;;;26.22;32.10;100450.66;5094802;28;20491;-68
2022/07/11 06:58:42;;;;;;;3.13;1.38;;;;;;;27.13;31.74;100448.47;5094684;28;20076;-68
2022/07/11 07:01:10;;;;;;;5.13;1.30;;;;;;;26.03;33.13;100456.69;5094950;28;20152;-68
2022/07/11 07:03:38;;;;;;;3.80;1.40;;;;;;;25.72;33.82;100460.41;5094571;28;20040;-70
2022/07/11 07:06:08;;;;;;;3.97;1.48;;;;;;;25.05;34.44;100458.38;5094719;28;20431;-68
2022/07/11 07:08:38;;;;;;;7.43;1.60;;;;;;;24.28;35.57;100460.94;5093998;28;20032;-67
2022/07/11 07:11:06;;;;;;;4.43;1.45;;;;;;;24.05;36.75;100459.16;5094459;28;20055;-67
2022/07/11 07:13:36;;;;;;;3.90;1.58;;;;;;;24.11;36.75;100466.59;5094457;28;20068;-65
2022/07/11 07:16:06;;;;;;;4.75;1.48;;;;;;;24.05;37.50;100460.00;5094592;28;20153;-64
2022/07/11 07:18:37;;;;;;;8.30;1.80;;;;;;;24.05;37.68;100453.69;5094276;28;20040;-69
2022/07/11 07:21:06;;;;;;;8.80;1.60;;;;;;;23.59;38.18;100461.59;5094682;28;20043;-68
2022/07/11 07:23:35;;;;;;;5.10;1.23;;;;;;;23.31;39.01;100453.75;5093695;28;20503;-69
2022/07/11 07:26:03;;;;;;;5.10;1.50;;;;;;;22.22;41.54;100466.50;5092074;28;20118;-69
2022/07/11 07:28:32;;;;;;;6.10;1.65;;;;;;;22.07;42.30;100455.38;5093655;28;20109;-69
2022/07/11 07:31:00;;;;;;;5.65;1.63;;;;;;;21.37;43.19;100468.09;5094212;28;20040;-70
2022/07/11 07:33:28;;;;;;;5.63;1.45;;;;;;;20.72;44.59;100457.44;5094259;28;20097;-70
2022/07/11 07:36:12;;;;;;;5.40;1.50;;;;;;;20.96;44.29;100469.56;5076115;28;20074;-70
2022/07/11 07:38:43;;;;;;;5.13;1.65;;;;;;;21.81;42.55;100470.81;5093788;28;20040;-70
2022/07/11 07:41:12;;;;;;;6.23;1.50;;;;;;;21.47;42.35;100462.59;5076020;28;20056;-73
2022/07/11 07:43:42;;;;;;;5.88;1.35;;;;;;;21.67;43.56;100462.22;5075759;28;20044;-74
2022/07/11 07:46:10;;;;;;;5.43;1.60;;;;;;;21.83;42.13;100466.09;5094099;28;20119;-74
2022/07/11 07:48:39;;;;;;;3.22;1.42;;;;;;;21.64;42.47;100462.56;5093868;28;20063;-72
2022/07/11 07:51:07;;;;;;;5.65;1.63;;;;;;;21.94;41.33;100472.09;5093984;28;20042;-72
2022/07/11 07:53:35;;;;;;;4.10;1.40;;;;;;;21.99;41.38;100472.44;5093643;28;20085;-79
2022/07/11 07:56:05;;;;;;;7.47;1.88;;;;;;;21.97;41.51;100471.75;5093710;28;20040;-77
2022/07/11 07:58:34;;;;;;;6.50;1.58;;;;;;;21.98;41.32;100476.19;5093461;28;20055;-74
2022/07/11 08:04:00;;;;;;;7.18;1.70;;;;;;;21.59;42.33;100472.19;5024791;28;20041;-75
2022/07/11 08:06:28;;;;;;;3.72;1.42;;;;;;;21.70;42.21;100480.91;5062354;28;20413;-75
2022/07/11 08:08:56;;;;;;;5.90;1.55;;;;;;;21.70;41.65;100478.19;5093522;28;20101;-69
2022/07/11 08:11:26;;;;;;;6.50;1.60;;;;;;;21.25;43.21;100480.19;5093548;28;20118;-74
2022/07/11 08:13:58;;;;;;;3.42;1.63;;;;;;;21.03;43.69;100470.63;5093829;28;20056;-76
2022/07/11 08:16:28;;;;;;;8.30;1.63;;;;;;;21.12;43.69;100475.13;5093416;28;20044;-88
2022/07/11 08:18:58;;;;;;;5.22;1.88;;;;;;;20.99;44.49;100474.66;5071059;28;20052;-73
2022/07/11 08:21:26;;;;;;;5.85;1.60;;;;;;;20.89;43.86;100472.03;5055407;28;20117;-74
2022/07/11 08:23:55;;;;;;;6.53;1.75;;;;;;;20.89;44.04;100472.03;5072941;28;20525;-66
2022/07/11 08:26:23;;;;;;;4.93;1.50;;;;;;;20.85;49.35;100465.22;5055309;28;20131;-67
2022/07/11 08:29:01;;;;;;;6.07;1.70;;;;;;;21.04;47.51;100462.34;5055245;28;20059;-67
2022/07/11 08:31:29;;;;;;;5.95;1.80;;;;;;;21.04;46.75;100459.66;5072777;28;20040;-68
2022/07/11 08:33:58;;;;;;;6.53;1.92;;;;;;;21.19;46.88;100461.81;5072788;28;20489;-66
2022/07/11 08:36:29;;;;;;;7.70;1.80;;;;;;;20.92;44.68;100460.00;5072955;28;20048;-66
2022/07/11 08:38:59;;;;;;;5.03;1.48;;;;;;;20.89;45.41;100454.91;5073435;28;20040;-69
2022/07/11 08:41:33;;;;;;;5.68;1.48;;;;;;;20.97;45.22;100455.84;5073304;28;20049;-70
2022/07/11 08:44:03;;;;;;;5.60;1.50;;;;;;;20.91;45.07;100445.59;5073095;28;20041;-71
2022/07/11 08:46:32;;;;;;;5.55;1.60;;;;;;;20.87;44.07;100438.78;5072951;28;20072;-72
2022/07/11 08:49:03;;;;;;;6.78;1.48;;;;;;;20.69;45.56;100446.91;5072991;28;20066;-73
2022/07/11 08:51:31;;;;;;;5.10;1.42;;;;;;;21.19;45.38;100450.94;5072637;28;20131;-71
2022/07/11 08:54:00;;;;;;;3.45;1.60;;;;;;;21.47;43.81;100451.72;5074502;28;20481;-70
2022/07/11 08:56:29;;;;;;;6.97;1.88;;;;;;;21.43;43.61;100448.50;5076911;28;20136;-71
2022/07/11 08:58:59;;;;;;;3.80;1.52;;;;;;;21.63;40.51;100443.72;5077066;28;20090;-68
2022/07/11 09:01:32;;;;;;;3.70;1.48;;;;;;;21.40;41.62;100441.50;5083890;28;20040;-71
2022/07/11 09:04:02;;;;;;;4.05;1.50;;;;;;;21.66;42.18;100440.69;5096658;28;20040;-71
2022/07/11 09:06:30;;;;;;;4.25;1.50;;;;;;;21.87;39.37;100433.00;5094189;28;20089;-79
2022/07/11 09:09:00;;;;;;;4.78;1.38;;;;;;;21.54;39.51;100433.81;5078231;28;20044;-71
2022/07/11 09:11:29;;;;;;;3.78;1.20;;;;;;;22.09;38.46;100431.63;5094370;28;20123;-70
2022/07/11 09:13:58;;;;;;;4.28;1.33;;;;;;;22.24;35.68;100438.16;5096264;28;20075;-70
2022/07/11 09:16:28;;;;;;;6.95;1.38;;;;;;;21.64;39.54;100431.84;5093488;28;20499;-70
2022/07/11 09:19:02;;;;;;;5.57;1.63;;;;;;;21.96;39.60;100420.31;5096194;28;20035;-70
2022/07/11 09:27:24;;;;;;;3.35;1.35;;;;;;;21.75;38.38;100417.16;4963313;28;20066;-69
2022/07/11 09:29:52;;;;;;;5.50;1.35;;;;;;;21.66;37.62;100418.97;5028552;28;20504;-69
2022/07/11 09:32:20;;;;;;;3.95;1.10;;;;;;;21.67;38.11;100413.38;5076420;28;20044;-68
2022/07/11 09:35:02;;;;;;;5.00;1.20;;;;;;;22.04;37.53;100414.94;5076329;28;20098;-69
2022/07/11 09:37:43;;;;;;;7.03;1.77;;;;;;;22.13;38.27;100416.72;5058152;28;20068;-67
2022/07/11 09:40:12;;;;;;;2.83;1.17;;;;;;;22.15;36.59;100398.38;5075968;28;20377;-68
2022/07/11 09:42:50;;;;;;;4.03;1.50;;;;;;;22.37;36.03;100396.94;5058164;28;20451;-68
2022/07/11 09:45:19;;;;;;;4.75;1.25;;;;;;;22.44;35.10;100402.56;5076092;28;20072;-68
2022/07/11 09:47:49;;;;;;;4.07;1.42;;;;;;;22.82;35.04;100407.41;5075929;28;20115;-68
2022/07/11 09:50:23;;;;;;;3.22;1.30;;;;;;;22.44;34.94;100397.13;5076215;28;20041;-67
2022/07/11 09:53:04;;;;;;;4.38;1.42;;;;;;;22.38;34.87;100405.94;5075610;28;20045;-68
2022/07/11 09:55:34;;;;;;;2.88;1.10;;;;;;;22.70;34.00;100408.75;5058230;28;20052;-68
2022/07/11 09:58:22;;;;;;;6.78;1.63;;;;;;;22.84;33.98;100388.25;5057873;28;20507;-67
2022/07/11 10:00:52;;;;;;;3.45;1.20;;;;;;;22.77;34.35;100393.47;5075794;28;20479;-68
2022/07/11 10:03:23;;;;;;;4.38;1.50;;;;;;;22.99;33.12;100402.03;5075551;28;20135;-67
2022/07/11 10:06:13;;;;;;;7.22;1.50;;;;;;;22.87;34.20;100398.78;5075676;28;20127;-67
2022/07/11 10:08:41;;;;;;;6.22;1.77;;;;;;;23.12;34.38;100395.06;5057646;28;20053;-68
2022/07/11 10:11:11;;;;;;;5.45;1.15;;;;;;;22.94;33.33;100388.09;5075898;28;20481;-68
2022/07/11 10:13:39;;;;;;;4.43;1.25;;;;;;;23.33;32.83;100399.13;5075394;28;20053;-68
2022/07/11 10:16:16;;;;;;;7.30;1.65;;;;;;;23.28;32.37;100407.81;5075721;28;20048;-67
2022/07/11 10:18:51;;;;;;;5.40;1.30;;;;;;;23.23;31.39;100393.88;5075271;28;20045;-68
2022/07/11 10:21:30;;;;;;;4.10;1.48;;;;;;;23.28;32.24;100391.50;5075865;28;20047;-67
2022/07/11 10:24:08;;;;;;;5.47;1.30;;;;;;;23.17;31.46;100397.28;5075174;28;20090;-68
2022/07/11 10:26:44;;;;;;;8.30;1.80;;;;;;;23.31;32.03;100374.81;5074246;28;20056;-69
2022/07/11 10:29:18;;;;;;;5.85;1.50;;;;;;;23.52;31.56;100376.16;5057676;28;20053;-67
2022/07/11 10:31:48;;;;;;;6.53;1.40;;;;;;;24.07;31.26;100383.53;5074947;28;20037;-68
2022/07/11 10:34:36;;;;;;;5.38;1.70;;;;;;;23.73;30.37;100384.63;5056822;28;20060;-69
2022/07/11 10:37:07;;;;;;;4.38;1.42;;;;;;;23.52;30.15;100381.59;5075274;28;20079;-68
2022/07/11 10:39:36;;;;;;;3.88;1.40;;;;;;;23.28;30.35;100385.22;5075119;28;20110;-68
2022/07/11 10:42:06;;;;;;;3.92;1.40;;;;;;;23.25;31.04;100389.09;5075097;28;20043;-68
2022/07/11 10:44:49;;;;;;;4.38;1.75;;;;;;;23.08;31.26;100385.56;5057177;28;20103;-67
2022/07/11 10:47:35;;;;;;;8.13;1.70;;;;;;;22.96;31.57;100397.75;5075116;28;20044;-68
2022/07/11 10:50:11;;;;;;;4.97;1.80;;;;;;;22.98;31.81;100376.72;5075326;28;20049;-68
2022/07/11 10:52:41;;;;;;;3.03;1.25;;;;;;;23.54;30.98;100369.50;5074622;28;20048;-68
2022/07/11 10:55:25;;;;;;;4.35;1.30;;;;;;;23.42;30.99;100373.59;5074951;28;20092;-68
2022/07/11 10:58:06;;;;;;;6.00;1.52;;;;;;;23.32;31.03;100376.50;5074422;28;20045;-68
2022/07/11 11:00:34;;;;;;;4.25;1.30;;;;;;;23.42;31.31;100360.84;5057013;28;20416;-68
2022/07/11 11:03:05;;;;;;;3.65;1.52;;;;;;;23.44;31.52;100374.28;5074701;28;20047;-68
2022/07/11 11:05:47;;;;;;;6.68;1.23;;;;;;;23.36;31.10;100367.00;5056965;28;20485;-70
2022/07/11 11:08:43;;;;;;;6.45;1.70;;;;;;;23.41;30.85;100370.03;5056904;28;20056;-68
2022/07/11 11:11:37;;;;;;;4.20;1.58;;;;;;;22.98;31.78;100367.69;5056854;28;20079;-68
2022/07/11 11:14:19;;;;;;;5.90;1.65;;;;;;;23.33;31.90;100369.19;5066034;28;20083;-68
2022/07/11 11:16:48;;;;;;;5.15;1.77;;;;;;;23.22;31.45;100358.66;5073785;28;20047;-68
2022/07/11 11:19:51;;;;;;;4.40;1.40;;;;;;;23.19;31.47;100364.47;5074311;28;20107;-68
2022/07/11 11:22:20;;;;;;;7.00;1.60;;;;;;;22.78;31.20;100367.16;5074451;28;20045;-68
2022/07/11 11:24:53;;;;;;;4.82;1.60;;;;;;;22.89;31.49;100360.56;5074076;28;20106;-68
2022/07/11 11:28:02;;;;;;;4.78;1.20;;;;;;;22.87;30.42;100373.44;5056241;28;20106;-68
2022/07/11 11:30:30;;;;;;;4.35;1.27;;;;;;;22.49;31.64;100367.59;5074046;28;20090;-67
2022/07/11 11:32:58;;;;;;;5.53;1.63;;;;;;;22.60;31.75;100369.16;5073456;28;20530;-68
2022/07/11 11:35:26;;;;;;;7.05;1.75;;;;;;;22.94;31.22;100382.63;5073945;28;20535;-67
2022/07/11 11:38:00;;;;;;;5.82;1.70;;;;;;;22.72;31.17;100370.53;5055752;28;20114;-68
2022/07/11 11:40:30;;;;;;;5.05;1.73;;;;;;;22.66;31.59;100363.03;5073809;28;20040;-68
2022/07/11 11:42:58;;;;;;;4.95;1.55;;;;;;;22.94;30.66;100352.72;5073692;28;20045;-68
2022/07/11 11:45:26;;;;;;;6.07;1.65;;;;;;;23.21;31.25;100371.44;5073728;28;20072;-68
2022/07/11 11:47:54;;;;;;;4.65;1.33;;;;;;;22.70;31.92;100370.69;5073691;28;20473;-68
2022/07/11 11:50:22;;;;;;;6.60;1.40;;;;;;;22.77;32.17;100366.25;5073840;28;20051;-68
2022/07/11 11:52:50;;;;;;;6.32;1.55;;;;;;;22.66;32.50;100363.03;5073520;28;20072;-68